Time;durP1;ratioP1;P1;durP2;ratioP2;P2;SDS_P1;SDS_P2;PMS_P1;PMS_P2;Temp;Humidity;BMP_temperature;BMP_pressure;BME280_temperature;BME280_humidity;BME280_pressure;Samples;Min_cycle;Max_cycle;Signal;HPM_P1;HPM_P2
2023/03/13 00:00:44;;;;;;;0.20;0.20;;;;;;;15.33;100.00;100601.59;2102967;28;20059;-76
2023/03/13 00:02:07;;;;;;;0.22;0.10;;;;;;;15.32;100.00;100606.03;2095042;28;20041;-76
2023/03/13 00:03:29;;;;;;;0.52;0.52;;;;;;;15.30;100.00;100606.91;2103151;28;20515;-76
2023/03/13 00:04:52;;;;;;;0.10;0.10;;;;;;;15.31;100.00;100606.91;2097604;28;20048;-76
2023/03/13 00:06:14;;;;;;;0.00;0.00;;;;;;;15.33;100.00;100604.25;2102985;28;20035;-76
2023/03/13 00:07:37;;;;;;;0.15;0.15;;;;;;;15.34;100.00;100600.69;2097183;28;20048;-76
2023/03/13 00:09:00;;;;;;;0.10;0.10;;;;;;;15.31;100.00;100600.69;2097140;28;20056;-77
2023/03/13 00:10:21;;;;;;;0.10;0.08;;;;;;;15.30;100.00;100602.47;2097222;28;20068;-76
2023/03/13 00:11:44;;;;;;;0.00;0.00;;;;;;;15.32;100.00;100606.03;2086233;28;20063;-76
2023/03/13 00:13:06;;;;;;;0.73;0.30;;;;;;;15.34;100.00;100584.75;2100656;28;20048;-75
2023/03/13 00:14:28;;;;;;;;;;;;;;;15.32;100.00;100602.47;2097731;28;20052;-75
2023/03/13 00:15:58;;;;;;;0.45;0.38;;;;;;;15.36;100.00;100609.56;2094837;28;20296;-75
2023/03/13 00:17:21;;;;;;;0.10;0.10;;;;;;;15.36;100.00;100605.09;2095902;28;20056;-75
2023/03/13 00:18:46;;;;;;;0.00;0.00;;;;;;;15.38;100.00;100605.09;2094833;28;20051;-76
2023/03/13 00:20:10;;;;;;;0.00;0.00;;;;;;;15.39;100.00;100602.44;2094933;28;20535;-75
2023/03/13 00:21:33;;;;;;;0.15;0.15;;;;;;;15.42;100.00;100596.22;2094970;28;20059;-75
2023/03/13 00:22:54;;;;;;;0.00;0.00;;;;;;;15.40;100.00;100598.00;2102894;28;20048;-76
2023/03/13 00:24:16;;;;;;;0.00;0.00;;;;;;;15.39;100.00;100586.47;2088936;28;20053;-76
2023/03/13 00:25:37;;;;;;;0.15;0.15;;;;;;;15.39;100.00;100599.78;2092196;28;20440;-75
2023/03/13 00:27:02;;;;;;;0.08;0.08;;;;;;;15.37;100.00;100590.91;2094363;28;20569;-76
2023/03/13 00:28:23;;;;;;;0.10;0.10;;;;;;;15.36;100.00;100591.78;2088900;28;20529;-75
2023/03/13 00:29:45;;;;;;;0.30;0.10;;;;;;;15.36;100.00;100597.13;2086368;28;20044;-75
2023/03/13 00:31:09;;;;;;;0.00;0.00;;;;;;;15.37;100.00;100592.69;2091851;28;20043;-75
2023/03/13 00:32:33;;;;;;;0.00;0.00;;;;;;;15.37;100.00;100603.31;2086604;28;20541;-77
2023/03/13 00:34:00;;;;;;;0.40;0.28;;;;;;;15.36;100.00;100602.44;2100454;28;20522;-76
2023/03/13 00:35:21;;;;;;;0.10;0.10;;;;;;;15.33;100.00;100604.25;2097110;28;20044;-75
2023/03/13 00:36:43;;;;;;;0.00;0.00;;;;;;;15.31;100.00;100614.88;2086531;28;20048;-76
2023/03/13 00:38:04;;;;;;;0.38;0.38;;;;;;;15.29;100.00;100610.50;2100299;28;20044;-76
2023/03/13 00:39:27;;;;;;;0.13;0.13;;;;;;;15.29;100.00;100614.03;2088682;28;20053;-76
2023/03/13 00:40:48;;;;;;;0.10;0.10;;;;;;;15.27;100.00;100615.81;2086475;28;20056;-76
2023/03/13 00:42:10;;;;;;;0.15;0.10;;;;;;;15.25;100.00;100609.59;2100020;28;20539;-76
2023/03/13 00:43:32;;;;;;;0.00;0.00;;;;;;;15.24;100.00;100622.91;2088758;28;20083;-77
2023/03/13 00:44:55;;;;;;;0.00;0.00;;;;;;;15.20;100.00;100618.50;2100260;28;20066;-76
2023/03/13 00:46:20;;;;;;;0.55;0.20;;;;;;;15.19;100.00;100619.41;2089079;28;20064;-78
2023/03/13 00:47:44;;;;;;;1.60;0.50;;;;;;;15.17;100.00;100624.72;2100365;28;20091;-76
2023/03/13 00:49:07;;;;;;;0.55;0.38;;;;;;;15.15;100.00;100624.75;2089225;28;20041;-76
2023/03/13 00:50:28;;;;;;;0.25;0.13;;;;;;;15.16;100.00;100620.31;2100453;28;20055;-78
2023/03/13 00:51:50;;;;;;;0.00;0.00;;;;;;;15.17;100.00;100622.06;2096826;28;20071;-76
2023/03/13 00:53:12;;;;;;;0.00;0.00;;;;;;;15.16;100.00;100613.19;2103109;28;20139;-77
2023/03/13 00:54:34;;;;;;;0.15;0.15;;;;;;;15.15;100.00;100619.44;2088906;28;20064;-76
2023/03/13 00:55:58;;;;;;;0.10;0.10;;;;;;;15.13;100.00;100626.53;2094269;28;20072;-76
2023/03/13 00:57:20;;;;;;;0.00;0.00;;;;;;;15.11;100.00;100622.97;2104890;28;20505;-76
2023/03/13 00:58:43;;;;;;;0.38;0.38;;;;;;;15.12;100.00;100624.75;2098468;28;20060;-76
2023/03/13 01:00:06;;;;;;;0.05;0.05;;;;;;;15.12;100.00;100623.88;2095454;28;20049;-75
2023/03/13 01:01:29;;;;;;;0.88;0.73;;;;;;;15.10;100.00;100626.53;2095428;28;20527;-75
2023/03/13 01:02:53;;;;;;;0.05;0.05;;;;;;;15.11;100.00;100624.75;2096349;28;20056;-75
2023/03/13 01:04:15;;;;;;;0.52;0.22;;;;;;;15.12;100.00;100639.81;2096185;28;20242;-75
2023/03/13 01:05:37;;;;;;;0.38;0.38;;;;;;;15.08;100.00;100625.66;2095803;28;20139;-75
2023/03/13 01:06:58;;;;;;;0.03;0.03;;;;;;;15.04;100.00;100612.38;2098738;28;20055;-75
2023/03/13 01:08:20;;;;;;;0.00;0.00;;;;;;;15.00;100.00;100624.81;2095653;28;20051;-75
2023/03/13 01:09:43;;;;;;;0.00;0.00;;;;;;;15.01;100.00;100633.69;2096318;28;20041;-76
2023/03/13 01:11:08;;;;;;;0.47;0.17;;;;;;;15.02;100.00;100632.78;2095856;28;20060;-75
2023/03/13 01:12:30;;;;;;;0.00;0.00;;;;;;;15.00;100.00;100634.56;2087751;28;20420;-76
2023/03/13 01:13:55;;;;;;;0.03;0.03;;;;;;;14.99;100.00;100632.78;2096034;28;20064;-76
2023/03/13 01:15:18;;;;;;;0.08;0.08;;;;;;;14.95;100.00;100631.94;2096193;28;20052;-76
2023/03/13 01:16:41;;;;;;;0.10;0.10;;;;;;;14.96;100.00;100633.72;2090094;28;20091;-75
2023/03/13 01:18:04;;;;;;;0.00;0.00;;;;;;;14.96;100.00;100636.38;2079695;28;20410;-75
2023/03/13 01:19:28;;;;;;;0.90;0.65;;;;;;;14.97;100.00;100643.41;2068875;28;20105;-76
2023/03/13 01:20:49;;;;;;;0.35;0.10;;;;;;;14.99;100.00;100649.63;2085271;28;20041;-75
2023/03/13 01:22:11;;;;;;;0.00;0.00;;;;;;;14.99;100.00;100639.00;2079502;28;20046;-75
2023/03/13 01:23:34;;;;;;;0.00;0.00;;;;;;;14.97;100.00;100635.44;2076871;28;20136;-76
2023/03/13 01:24:56;;;;;;;0.17;0.17;;;;;;;14.96;100.00;100639.03;2076938;28;20042;-75
2023/03/13 01:26:19;;;;;;;1.40;0.52;;;;;;;14.95;100.00;100641.69;2084987;28;20410;-76
2023/03/13 01:27:40;;;;;;;0.00;0.00;;;;;;;14.92;100.00;100650.53;2090057;28;20056;-76
2023/03/13 01:29:03;;;;;;;0.65;0.22;;;;;;;14.87;100.00;100647.03;2087738;28;20037;-75
2023/03/13 01:30:24;;;;;;;0.00;0.00;;;;;;;14.86;100.00;100647.03;2095990;28;20413;-75
2023/03/13 01:31:46;;;;;;;0.63;0.63;;;;;;;14.86;100.00;100647.91;2081901;28;20053;-75
2023/03/13 01:33:10;;;;;;;0.00;0.00;;;;;;;14.86;100.00;100647.03;2087684;28;20043;-75
2023/03/13 01:34:33;;;;;;;1.65;0.80;;;;;;;14.84;100.00;100644.38;2090554;28;20501;-76
2023/03/13 01:36:00;;;;;;;0.00;0.00;;;;;;;14.83;100.00;100644.41;2090060;28;20049;-76
2023/03/13 01:37:23;;;;;;;0.00;0.00;;;;;;;14.83;100.00;100636.41;2074074;28;20053;-75
2023/03/13 01:38:48;;;;;;;0.20;0.10;;;;;;;14.83;100.00;100632.00;2093444;28;20044;-75
2023/03/13 01:40:12;;;;;;;0.00;0.00;;;;;;;14.83;100.00;100632.00;2081552;28;20045;-75
2023/03/13 01:41:35;;;;;;;0.30;0.30;;;;;;;14.82;100.00;100632.00;2087824;28;20041;-75
2023/03/13 01:42:58;;;;;;;0.00;0.00;;;;;;;14.79;100.00;100624.91;2087758;28;20049;-75
2023/03/13 01:44:24;;;;;;;8.65;2.92;;;;;;;14.79;100.00;100624.00;2087697;28;20044;-75
2023/03/13 01:46:02;;;;;;;9.00;2.88;;;;;;;14.77;100.00;100621.34;2088165;28;20408;-75
2023/03/13 01:47:32;;;;;;;12.60;3.45;;;;;;;14.77;100.00;100616.94;2081588;28;20208;-75
2023/03/13 01:49:10;;;;;;;8.48;3.10;;;;;;;14.79;100.00;100619.59;2088003;28;20393;-75
2023/03/13 01:50:57;;;;;;;10.32;3.17;;;;;;;14.77;100.00;100616.94;2090110;28;20386;-75
2023/03/13 01:52:26;;;;;;;11.18;3.08;;;;;;;14.76;100.00;100603.66;2079791;28;20562;-75
2023/03/13 01:54:01;;;;;;;7.47;3.10;;;;;;;14.75;100.00;100604.56;2087523;28;20049;-75
2023/03/13 01:55:23;;;;;;;9.93;3.25;;;;;;;14.73;100.00;100601.91;2088659;28;20409;-75
2023/03/13 01:56:52;;;;;;;8.25;3.05;;;;;;;14.75;100.00;100601.91;2079389;28;20045;-74
2023/03/13 01:58:14;;;;;;;10.18;3.17;;;;;;;14.74;100.00;100606.31;2079944;28;20050;-77
2023/03/13 01:59:40;;;;;;;8.73;3.17;;;;;;;14.75;100.00;100596.59;2076576;28;20669;-76
2023/03/13 02:01:04;;;;;;;10.77;2.55;;;;;;;14.75;100.00;100586.84;2085982;28;20540;-76
2023/03/13 02:02:27;;;;;;;13.23;3.33;;;;;;;14.77;100.00;100596.59;2094475;28;20049;-75
2023/03/13 02:03:50;;;;;;;8.88;3.13;;;;;;;14.79;100.00;100592.13;2090011;28;20053;-75
2023/03/13 02:05:17;;;;;;;10.63;3.20;;;;;;;14.77;100.00;100600.09;2093191;28;20094;-75
2023/03/13 02:06:44;;;;;;;8.52;3.33;;;;;;;14.76;100.00;100603.66;2088450;28;20044;-76
2023/03/13 02:08:10;;;;;;;12.25;3.55;;;;;;;14.73;100.00;100599.25;2085589;28;20413;-75
2023/03/13 02:09:35;;;;;;;10.60;3.13;;;;;;;14.73;100.00;100595.69;2093889;28;20170;-75
2023/03/13 02:11:03;;;;;;;10.38;3.03;;;;;;;14.70;100.00;100595.72;2087546;28;20037;-76
2023/03/13 02:12:31;;;;;;;10.55;2.92;;;;;;;14.65;100.00;100592.19;2090117;28;20107;-76
2023/03/13 02:13:56;;;;;;;11.48;3.35;;;;;;;14.64;100.00;100593.06;2085770;28;20044;-75
2023/03/13 02:15:21;;;;;;;14.07;3.15;;;;;;;14.65;100.00;100593.06;2093217;28;20052;-75
2023/03/13 02:16:47;;;;;;;12.75;3.55;;;;;;;14.69;100.00;100588.63;2081951;28;20037;-75
2023/03/13 02:18:10;;;;;;;14.38;3.35;;;;;;;14.69;100.00;100602.81;2077510;28;20057;-76
2023/03/13 02:19:40;;;;;;;11.32;2.90;;;;;;;14.70;100.00;100601.03;2079015;28;20453;-76
2023/03/13 02:21:10;;;;;;;9.55;3.45;;;;;;;14.68;100.00;100594.84;2088613;28;20417;-75
2023/03/13 02:22:47;;;;;;;12.32;3.40;;;;;;;14.65;100.00;100597.50;2079812;28;20395;-75
2023/03/13 02:24:18;;;;;;;9.27;3.80;;;;;;;14.61;100.00;100612.56;2088479;28;20056;-75
2023/03/13 02:25:43;;;;;;;12.18;3.40;;;;;;;14.61;100.00;100603.72;2088183;28;20346;-75
2023/03/13 02:27:07;;;;;;;11.40;3.78;;;;;;;14.63;100.00;100607.25;2079625;28;20452;-75
2023/03/13 02:28:34;;;;;;;11.00;3.53;;;;;;;14.66;100.00;100610.78;2087759;28;20045;-76
2023/03/13 02:29:59;;;;;;;12.05;3.97;;;;;;;14.67;100.00;100609.00;2087506;28;20053;-76
2023/03/13 02:31:21;;;;;;;7.13;2.97;;;;;;;14.67;100.00;100606.34;2087409;28;20461;-75
2023/03/13 02:32:44;;;;;;;18.20;3.90;;;;;;;14.70;100.00;100616.97;2086879;28;20060;-75
2023/03/13 02:34:05;;;;;;;14.38;3.58;;;;;;;14.70;100.00;100614.31;2087172;28;20040;-75
2023/03/13 02:35:29;;;;;;;11.88;3.83;;;;;;;14.71;100.00;100616.06;2090011;28;20544;-76
2023/03/13 02:36:52;;;;;;;9.32;3.05;;;;;;;14.72;100.00;100624.03;2087045;28;20091;-76
2023/03/13 02:38:19;;;;;;;11.60;3.38;;;;;;;14.73;100.00;100625.81;2087126;28;20056;-75
2023/03/13 02:39:45;;;;;;;11.48;3.55;;;;;;;14.73;100.00;100614.28;2087765;28;20095;-75
2023/03/13 02:41:10;;;;;;;10.63;3.50;;;;;;;14.72;100.00;100623.16;2087794;28;20446;-75
2023/03/13 02:42:32;;;;;;;8.93;3.50;;;;;;;14.67;100.00;100635.56;2086983;28;20604;-75
2023/03/13 02:43:54;;;;;;;9.52;3.00;;;;;;;14.65;100.00;100632.03;2087167;28;20057;-75
2023/03/13 02:45:18;;;;;;;13.15;3.50;;;;;;;14.64;100.00;100625.84;2085254;28;20163;-75
2023/03/13 02:46:49;;;;;;;18.42;3.70;;;;;;;14.63;100.00;100642.69;2092765;28;20047;-75
2023/03/13 02:48:11;;;;;;;14.65;3.42;;;;;;;14.63;100.00;100650.66;2089804;28;20091;-75
2023/03/13 02:49:34;;;;;;;12.15;3.22;;;;;;;14.64;100.00;100651.50;2089750;28;20144;-75
2023/03/13 02:50:55;;;;;;;14.52;3.75;;;;;;;14.64;100.00;100652.41;2086660;28;20078;-75
2023/03/13 02:52:22;;;;;;;11.73;4.00;;;;;;;14.63;100.00;100655.09;2087041;28;20489;-76
2023/03/13 02:53:45;;;;;;;13.27;3.38;;;;;;;14.59;100.00;100654.19;2085675;28;20045;-75
2023/03/13 02:55:16;;;;;;;8.55;3.30;;;;;;;14.58;100.00;100660.38;2084701;28;20049;-76
2023/03/13 02:56:42;;;;;;;11.15;3.28;;;;;;;14.56;100.00;100662.19;2088563;28;20497;-76
2023/03/13 02:58:06;;;;;;;12.55;3.80;;;;;;;14.57;100.00;100671.03;2095546;28;20549;-75
2023/03/13 02:59:30;;;;;;;11.10;3.40;;;;;;;14.54;100.00;100663.94;2087297;28;20717;-76
2023/03/13 03:00:53;;;;;;;12.63;3.75;;;;;;;14.52;100.00;100673.69;2084407;28;20465;-75
2023/03/13 03:02:15;;;;;;;11.60;3.50;;;;;;;14.52;100.00;100664.84;2092102;28;20424;-75
2023/03/13 03:03:37;;;;;;;13.73;3.85;;;;;;;14.53;100.00;100669.25;2086805;28;20064;-75
2023/03/13 03:04:59;;;;;;;11.85;3.20;;;;;;;14.51;100.00;100674.56;2084093;28;20079;-75
2023/03/13 03:06:21;;;;;;;12.82;3.25;;;;;;;14.50;100.00;100670.16;2084140;28;20571;-74
2023/03/13 03:07:45;;;;;;;13.63;3.55;;;;;;;14.46;100.00;100665.72;2086877;28;20213;-74
2023/03/13 03:09:08;;;;;;;9.32;3.10;;;;;;;14.41;100.00;100675.47;2084575;28;20036;-75
2023/03/13 03:10:31;;;;;;;12.77;4.13;;;;;;;14.40;100.00;100676.38;2085131;28;20056;-75
2023/03/13 03:11:54;;;;;;;14.93;3.92;;;;;;;14.41;100.00;100683.47;2083719;28;20048;-75
2023/03/13 03:13:16;;;;;;;11.57;3.50;;;;;;;14.40;100.00;100686.09;2084759;28;20389;-75
2023/03/13 03:14:39;;;;;;;15.55;3.80;;;;;;;14.37;100.00;100676.34;2084079;28;20056;-74
2023/03/13 03:16:05;;;;;;;10.93;3.63;;;;;;;14.35;100.00;100689.63;2076098;28;20037;-75
2023/03/13 03:17:28;;;;;;;13.68;3.17;;;;;;;14.33;100.00;100691.38;2085655;28;20049;-75
2023/03/13 03:18:49;;;;;;;10.10;3.05;;;;;;;14.32;100.00;100688.72;2078243;28;20057;-75
2023/03/13 03:20:12;;;;;;;12.90;3.83;;;;;;;14.30;100.00;100690.53;2075684;28;20041;-74
2023/03/13 03:21:37;;;;;;;13.77;3.20;;;;;;;14.31;100.00;100698.47;2076881;28;20083;-75
2023/03/13 03:22:59;;;;;;;13.38;3.30;;;;;;;14.32;100.00;100702.00;2084104;28;20132;-75
2023/03/13 03:24:21;;;;;;;9.45;3.40;;;;;;;14.31;100.00;100703.78;2081024;28;20046;-75
2023/03/13 03:25:43;;;;;;;10.40;2.97;;;;;;;14.32;100.00;100713.53;2075624;28;20055;-75
2023/03/13 03:27:07;;;;;;;10.45;3.17;;;;;;;14.31;100.00;100709.09;2075853;28;20486;-75
2023/03/13 03:28:35;;;;;;;10.20;3.15;;;;;;;14.28;100.00;100705.56;2087665;28;20057;-74
2023/03/13 03:30:01;;;;;;;12.02;3.30;;;;;;;14.20;100.00;100718.84;2087117;28;20053;-74
2023/03/13 03:31:22;;;;;;;10.45;3.00;;;;;;;14.15;100.00;100720.63;2078395;28;20053;-74
2023/03/13 03:32:45;;;;;;;11.48;2.70;;;;;;;14.11;100.00;100704.69;2083452;28;20100;-75
2023/03/13 03:34:07;;;;;;;9.45;2.80;;;;;;;14.09;100.00;100722.38;2086996;28;20675;-75
2023/03/13 03:35:28;;;;;;;10.57;3.72;;;;;;;14.08;100.00;100710.88;2086561;28;20060;-74
2023/03/13 03:36:50;;;;;;;14.05;2.97;;;;;;;14.08;100.00;100718.84;2086482;28;20051;-75
2023/03/13 03:38:12;;;;;;;13.43;3.08;;;;;;;14.08;100.00;100707.31;2086750;28;20045;-75
2023/03/13 03:39:35;;;;;;;10.15;2.40;;;;;;;14.03;100.00;100717.06;2086200;28;20059;-74
2023/03/13 03:40:57;;;;;;;10.55;2.70;;;;;;;14.01;100.00;100722.38;2078530;28;20045;-75
2023/03/13 03:42:21;;;;;;;13.77;2.97;;;;;;;13.98;100.00;100718.84;2078360;28;20108;-74
2023/03/13 03:43:43;;;;;;;12.70;2.90;;;;;;;13.95;100.00;100725.91;2076122;28;20076;-75
2023/03/13 03:45:08;;;;;;;9.48;3.42;;;;;;;13.94;100.00;100725.91;2084496;28;20578;-74
2023/03/13 03:46:30;;;;;;;10.90;3.08;;;;;;;13.93;100.00;100724.13;2086719;28;20049;-74
2023/03/13 03:47:51;;;;;;;7.28;2.67;;;;;;;13.91;100.00;100731.22;2086286;28;20068;-75
2023/03/13 03:49:14;;;;;;;8.70;2.75;;;;;;;13.85;100.00;100725.88;2089227;28;20187;-74
2023/03/13 03:50:35;;;;;;;8.85;2.63;;;;;;;13.80;100.00;100723.22;2094930;28;20147;-74
2023/03/13 03:51:57;;;;;;;9.70;2.83;;;;;;;13.74;100.00;100728.50;2080667;28;20272;-75
2023/03/13 03:53:27;;;;;;;7.38;2.38;;;;;;;13.71;100.00;100739.13;2087270;28;20049;-74
2023/03/13 03:54:48;;;;;;;11.13;2.80;;;;;;;13.67;100.00;100744.41;2078622;28;20506;-74
2023/03/13 03:56:12;;;;;;;11.20;2.72;;;;;;;13.66;100.00;100742.63;2075590;28;20445;-76
2023/03/13 03:57:41;;;;;;;8.43;2.95;;;;;;;13.64;100.00;100744.41;2076908;28;20060;-75
2023/03/13 03:59:07;;;;;;;10.90;2.78;;;;;;;13.61;100.00;100749.69;2077422;28;20486;-76
2023/03/13 04:00:38;;;;;;;8.57;2.78;;;;;;;13.57;100.00;100748.81;2086079;28;20053;-75
2023/03/13 04:02:00;;;;;;;14.52;2.97;;;;;;;13.57;100.00;100756.78;2080984;28;20060;-75
2023/03/13 04:03:25;;;;;;;10.57;2.42;;;;;;;13.55;100.00;100755.88;2084286;28;20068;-75
2023/03/13 04:04:47;;;;;;;9.57;3.15;;;;;;;13.55;100.00;100771.78;2092421;28;20147;-75
2023/03/13 04:06:24;;;;;;;8.93;2.50;;;;;;;13.52;100.00;100750.56;2088226;28;20525;-75
2023/03/13 04:07:47;;;;;;;17.15;2.70;;;;;;;13.53;100.00;100755.88;2094497;28;20064;-75
2023/03/13 04:09:08;;;;;;;11.25;2.55;;;;;;;13.58;100.00;100758.56;2078339;28;20076;-75
2023/03/13 04:10:33;;;;;;;10.07;2.40;;;;;;;13.63;100.00;100758.56;2081879;28;20052;-75
2023/03/13 04:11:54;;;;;;;9.18;2.22;;;;;;;13.67;100.00;100752.38;2086596;28;20049;-75
2023/03/13 04:13:18;;;;;;;9.07;2.58;;;;;;;13.72;100.00;100756.81;2083914;28;20068;-75
2023/03/13 04:14:39;;;;;;;8.07;2.65;;;;;;;13.74;100.00;100748.84;2083774;28;20435;-75
2023/03/13 04:16:08;;;;;;;7.35;2.28;;;;;;;13.78;100.00;100758.59;2084767;28;20116;-75
2023/03/13 04:17:31;;;;;;;11.25;3.28;;;;;;;13.81;100.00;100759.50;2089018;28;20074;-75
2023/03/13 04:18:52;;;;;;;11.90;2.85;;;;;;;13.86;100.00;100762.13;2086537;28;20312;-75
2023/03/13 04:20:16;;;;;;;10.15;2.53;;;;;;;13.86;100.00;100748.88;2078158;28;20188;-75
2023/03/13 04:21:38;;;;;;;13.43;3.17;;;;;;;13.86;100.00;100756.84;2083933;28;20095;-76
2023/03/13 04:23:05;;;;;;;10.98;2.70;;;;;;;13.87;100.00;100750.66;2078725;28;20085;-76
2023/03/13 04:24:27;;;;;;;9.30;2.78;;;;;;;13.87;100.00;100748.00;2092249;28;20569;-75
2023/03/13 04:25:51;;;;;;;9.65;2.25;;;;;;;13.85;100.00;100755.06;2080698;28;20135;-75
2023/03/13 04:27:13;;;;;;;9.30;2.45;;;;;;;13.83;100.00;100738.28;2083567;28;20056;-74
2023/03/13 04:28:37;;;;;;;10.77;2.67;;;;;;;13.78;100.00;100745.34;2080749;28;20053;-76
2023/03/13 04:30:03;;;;;;;9.27;2.60;;;;;;;13.76;100.00;100749.75;2084666;28;20076;-75
2023/03/13 04:31:57;;;;;;;7.45;2.70;;;;;;;13.77;100.00;100754.19;2064131;28;20368;-75
2023/03/13 04:33:30;;;;;;;11.32;2.70;;;;;;;13.77;100.00;100762.13;2087708;28;20098;-76
2023/03/13 04:35:16;;;;;;;12.25;3.20;;;;;;;13.67;100.00;100757.69;2089186;28;20088;-81
2023/03/13 04:36:57;;;;;;;10.75;3.67;;;;;;;13.51;100.00;100768.25;2097114;28;20064;-78
2023/03/13 04:38:42;;;;;;;11.48;3.47;;;;;;;13.40;100.00;100769.97;2082233;28;20045;-80
2023/03/13 04:40:24;;;;;;;14.30;4.00;;;;;;;13.34;100.00;100771.69;2080563;28;20056;-80
2023/03/13 04:42:02;;;;;;;11.63;3.40;;;;;;;13.29;100.00;100766.38;2087623;28;20497;-79
2023/03/13 04:43:47;;;;;;;13.13;3.47;;;;;;;13.18;100.00;100765.47;2096879;28;20048;-77
2023/03/13 04:45:21;;;;;;;10.75;3.47;;;;;;;13.07;100.00;100772.41;2088920;28;20056;-77
2023/03/13 04:47:10;;;;;;;12.27;3.67;;;;;;;12.98;100.00;100782.97;2097397;28;20601;-78
2023/03/13 04:48:45;;;;;;;13.95;3.58;;;;;;;12.95;100.00;100786.47;2080988;28;20049;-78
2023/03/13 04:50:28;;;;;;;13.55;3.53;;;;;;;12.97;100.00;100789.16;2086961;28;20064;-77
2023/03/13 04:52:06;;;;;;;12.60;3.42;;;;;;;12.99;100.00;100766.19;2079797;28;20034;-76
2023/03/13 04:53:46;;;;;;;11.82;3.47;;;;;;;13.01;100.00;100785.63;2080600;28;20092;-77
2023/03/13 04:55:29;;;;;;;14.00;3.80;;;;;;;12.99;100.00;100793.59;2073810;28;20076;-76
2023/03/13 04:57:11;;;;;;;;;;;;;;;12.98;100.00;100798.88;2081391;28;20056;-78
2023/03/13 04:58:56;;;;;;;12.52;3.58;;;;;;;13.02;100.00;100796.25;2087197;28;19946;-77
2023/03/13 05:00:50;;;;;;;13.23;3.53;;;;;;;13.07;100.00;100804.22;2088214;28;20076;-78
2023/03/13 05:02:12;;;;;;;8.65;3.38;;;;;;;13.15;100.00;100799.88;2095886;28;20081;-77
2023/03/13 05:03:55;;;;;;;14.13;3.90;;;;;;;13.21;100.00;100810.53;2066641;28;20050;-77
2023/03/13 05:05:38;;;;;;;13.77;3.40;;;;;;;13.29;100.00;100794.66;2080646;28;20048;-76
2023/03/13 05:07:32;;;;;;;10.05;3.08;;;;;;;13.35;100.00;100814.13;2080261;28;20054;-76
2023/03/13 05:09:03;;;;;;;14.95;4.10;;;;;;;13.42;100.00;100818.59;2078753;28;20144;-77
2023/03/13 05:10:44;;;;;;;11.27;3.50;;;;;;;13.50;100.00;100806.25;2088407;28;20109;-77
2023/03/13 05:12:07;;;;;;;8.88;2.78;;;;;;;13.56;100.00;100814.25;2094687;28;20389;-77
2023/03/13 05:14:00;;;;;;;11.95;3.38;;;;;;;13.55;100.00;100801.84;2083910;28;20084;-77
2023/03/13 05:15:25;;;;;;;12.07;3.03;;;;;;;13.54;100.00;100817.75;2092195;28;20045;-77
2023/03/13 05:16:56;;;;;;;8.48;2.70;;;;;;;13.50;100.00;100816.88;2088765;28;20136;-77
2023/03/13 05:18:38;;;;;;;13.85;3.50;;;;;;;13.48;100.00;100821.28;2096632;28;20044;-78
2023/03/13 05:20:19;;;;;;;13.80;4.28;;;;;;;13.47;100.00;100819.50;2097096;28;20049;-77
2023/03/13 05:21:49;;;;;;;11.45;3.00;;;;;;;13.48;100.00;100826.56;2096871;28;20045;-77
2023/03/13 05:23:30;;;;;;;9.18;2.70;;;;;;;13.53;100.00;100827.47;2096747;28;20098;-77
2023/03/13 05:25:16;;;;;;;9.70;3.40;;;;;;;13.55;100.00;100827.50;2088498;28;20049;-77
2023/03/13 05:27:13;;;;;;;11.95;3.42;;;;;;;13.56;100.00;100826.63;2084464;28;20053;-77
2023/03/13 05:28:50;;;;;;;6.88;2.72;;;;;;;13.57;100.00;100831.94;2096492;28;20097;-77
2023/03/13 05:30:43;;;;;;;13.32;3.60;;;;;;;13.62;100.00;100823.09;2085742;28;20045;-77
2023/03/13 05:32:24;;;;;;;10.93;3.30;;;;;;;13.64;100.00;100826.66;2096457;28;20087;-77
2023/03/13 05:34:09;;;;;;;13.65;3.53;;;;;;;13.66;100.00;100816.91;2080225;28;20057;-77
2023/03/13 05:35:50;;;;;;;9.52;3.30;;;;;;;13.64;100.00;100834.59;2096659;28;20040;-77
2023/03/13 05:37:17;;;;;;;13.25;3.28;;;;;;;13.66;100.00;100836.38;2097164;28;20040;-77
2023/03/13 05:38:39;;;;;;;10.68;3.13;;;;;;;13.68;100.00;100836.38;2096734;28;20057;-77
2023/03/13 05:40:16;;;;;;;14.05;3.65;;;;;;;13.68;100.00;100842.56;2088480;28;20049;-77
2023/03/13 05:41:57;;;;;;;12.73;3.33;;;;;;;13.71;100.00;100847.91;2088594;28;20076;-77
2023/03/13 05:43:32;;;;;;;13.52;3.22;;;;;;;13.77;100.00;100847.94;2089525;28;20052;-77
2023/03/13 05:45:13;;;;;;;15.75;3.60;;;;;;;13.83;100.00;100847.94;2090134;28;20460;-77
2023/03/13 05:46:53;;;;;;;9.60;3.63;;;;;;;13.85;100.00;100848.81;2081429;28;20451;-77
2023/03/13 05:48:36;;;;;;;13.50;3.40;;;;;;;13.85;100.00;100847.94;2090101;28;20053;-77
2023/03/13 05:50:09;;;;;;;12.60;3.08;;;;;;;13.92;100.00;100860.34;2080673;28;20482;-77
2023/03/13 05:51:49;;;;;;;8.95;2.88;;;;;;;13.99;100.00;100856.84;2082055;28;20468;-77
2023/03/13 05:53:38;;;;;;;9.60;3.00;;;;;;;14.02;100.00;100862.16;2089844;28;20406;-76
2023/03/13 05:55:14;;;;;;;10.07;3.03;;;;;;;14.03;100.00;100873.69;2081931;28;20045;-77
2023/03/13 05:56:50;;;;;;;11.10;3.25;;;;;;;14.08;100.00;100867.50;2096831;28;20060;-76
2023/03/13 05:58:39;;;;;;;11.55;3.00;;;;;;;14.12;100.00;100868.38;2080322;28;20386;-76
2023/03/13 06:00:09;;;;;;;14.93;3.28;;;;;;;14.13;100.00;100865.72;2081592;28;20049;-77
2023/03/13 06:01:48;;;;;;;11.90;2.97;;;;;;;14.13;100.00;100859.53;2081662;28;20048;-76
2023/03/13 06:03:23;;;;;;;10.65;3.03;;;;;;;14.18;100.00;100863.06;2087771;28;20076;-78
2023/03/13 06:04:47;;;;;;;11.05;2.40;;;;;;;14.20;100.00;100863.97;2079692;28;20069;-77
2023/03/13 06:06:09;;;;;;;13.18;3.10;;;;;;;14.16;100.00;100862.22;2084890;28;20052;-78
2023/03/13 06:07:37;;;;;;;12.45;2.80;;;;;;;14.08;100.00;100863.94;2079379;28;20041;-77
2023/03/13 06:08:58;;;;;;;9.63;2.40;;;;;;;14.04;100.00;100860.41;2085052;28;20192;-77
2023/03/13 06:10:24;;;;;;;11.77;2.97;;;;;;;14.02;100.00;100870.13;2079679;28;20041;-77
2023/03/13 06:11:46;;;;;;;14.23;2.90;;;;;;;14.04;100.00;100868.38;2079102;28;20042;-76
2023/03/13 06:13:08;;;;;;;10.60;3.28;;;;;;;14.11;100.00;100871.94;2079241;28;20049;-77
2023/03/13 06:14:31;;;;;;;12.63;2.63;;;;;;;14.19;100.00;100867.50;2085076;28;20090;-77
2023/03/13 06:16:16;;;;;;;11.57;2.85;;;;;;;14.21;100.00;100871.94;2081265;28;20064;-77
2023/03/13 06:17:40;;;;;;;10.02;2.90;;;;;;;14.24;100.00;100869.28;2086197;28;20131;-76
2023/03/13 06:19:04;;;;;;;10.43;2.47;;;;;;;14.29;100.00;100866.66;2092296;28;20036;-77
2023/03/13 06:20:26;;;;;;;13.75;3.13;;;;;;;14.29;100.00;100870.22;2095384;28;20084;-78
2023/03/13 06:21:47;;;;;;;5.97;2.65;;;;;;;14.29;100.00;100870.22;2095307;28;20531;-76
2023/03/13 06:23:10;;;;;;;11.57;2.88;;;;;;;14.31;100.00;100865.75;2095581;28;20037;-76
2023/03/13 06:24:32;;;;;;;14.02;3.15;;;;;;;14.34;100.00;100871.09;2095246;28;20048;-76
2023/03/13 06:25:55;;;;;;;10.95;3.22;;;;;;;14.40;100.00;100872.00;2095629;28;20049;-76
2023/03/13 06:27:17;;;;;;;8.35;3.10;;;;;;;14.39;100.00;100873.78;2104193;28;20066;-77
2023/03/13 06:28:40;;;;;;;9.95;2.90;;;;;;;14.35;100.00;100867.56;2097799;28;20052;-76
2023/03/13 06:30:02;;;;;;;10.23;2.65;;;;;;;14.32;100.00;100882.59;2103851;28;20040;-76
2023/03/13 06:31:25;;;;;;;7.57;2.58;;;;;;;14.30;100.00;100871.97;2098342;28;20048;-76
2023/03/13 06:32:49;;;;;;;9.85;3.42;;;;;;;14.31;100.00;100881.69;2103608;28;20085;-76
2023/03/13 06:34:13;;;;;;;6.93;2.83;;;;;;;14.34;100.00;100880.84;2098218;28;20040;-76
2023/03/13 06:35:36;;;;;;;10.02;2.90;;;;;;;14.30;100.00;100874.63;2095624;28;20057;-76
2023/03/13 06:36:59;;;;;;;12.27;3.42;;;;;;;14.26;100.00;100871.94;2095312;28;20093;-76
2023/03/13 06:38:21;;;;;;;8.10;2.67;;;;;;;14.18;100.00;100890.50;2095440;28;20052;-76
2023/03/13 06:39:44;;;;;;;11.50;2.95;;;;;;;14.19;100.00;100886.09;2103975;28;20052;-77